sensor_id;sensor_type;location;lat;lon;timestamp;P1;durP1;ratioP1;P2;durP2;ratioP2
9942;SDS011;5010;45.080;7.634;2023-07-31T00:01:23;10.75;;;10.18;;
9942;SDS011;5010;45.080;7.634;2023-07-31T00:03:50;13.18;;;9.70;;
9942;SDS011;5010;45.080;7.634;2023-07-31T00:06:17;10.93;;;10.32;;
9942;SDS011;5010;45.080;7.634;2023-07-31T00:08:45;11.05;;;10.45;;
9942;SDS011;5010;45.080;7.634;2023-07-31T00:11:13;11.18;;;9.07;;
9942;SDS011;5010;45.080;7.634;2023-07-31T00:13:40;10.05;;;9.43;;
9942;SDS011;5010;45.080;7.634;2023-07-31T00:16:07;11.52;;;10.93;;
9942;SDS011;5010;45.080;7.634;2023-07-31T00:18:34;10.43;;;9.20;;
9942;SDS011;5010;45.080;7.634;2023-07-31T00:21:02;9.38;;;8.88;;
9942;SDS011;5010;45.080;7.634;2023-07-31T00:23:29;8.48;;;8.00;;
9942;SDS011;5010;45.080;7.634;2023-07-31T00:25:57;10.40;;;9.90;;
9942;SDS011;5010;45.080;7.634;2023-07-31T00:28:25;10.00;;;9.50;;
9942;SDS011;5010;45.080;7.634;2023-07-31T00:30:52;9.35;;;8.85;;
9942;SDS011;5010;45.080;7.634;2023-07-31T00:33:19;8.35;;;7.50;;
9942;SDS011;5010;45.080;7.634;2023-07-31T00:35:48;11.35;;;10.75;;
9942;SDS011;5010;45.080;7.634;2023-07-31T00:38:15;8.65;;;8.15;;
9942;SDS011;5010;45.080;7.634;2023-07-31T00:40:42;11.52;;;10.15;;
9942;SDS011;5010;45.080;7.634;2023-07-31T00:43:11;11.85;;;11.25;;
9942;SDS011;5010;45.080;7.634;2023-07-31T00:45:38;9.80;;;9.30;;
9942;SDS011;5010;45.080;7.634;2023-07-31T00:48:05;8.43;;;7.97;;
9942;SDS011;5010;45.080;7.634;2023-07-31T00:50:33;8.80;;;7.90;;
9942;SDS011;5010;45.080;7.634;2023-07-31T00:53:01;10.05;;;9.55;;
9942;SDS011;5010;45.080;7.634;2023-07-31T00:55:29;11.10;;;10.50;;
9942;SDS011;5010;45.080;7.634;2023-07-31T00:57:56;9.10;;;8.60;;
9942;SDS011;5010;45.080;7.634;2023-07-31T01:00:24;11.38;;;10.77;;
9942;SDS011;5010;45.080;7.634;2023-07-31T01:02:52;11.40;;;10.80;;
9942;SDS011;5010;45.080;7.634;2023-07-31T01:05:20;10.32;;;9.80;;
9942;SDS011;5010;45.080;7.634;2023-07-31T01:07:52;8.13;;;7.72;;
9942;SDS011;5010;45.080;7.634;2023-07-31T01:10:20;9.05;;;8.55;;
9942;SDS011;5010;45.080;7.634;2023-07-31T01:12:48;9.95;;;9.45;;
9942;SDS011;5010;45.080;7.634;2023-07-31T01:15:17;9.57;;;9.07;;
9942;SDS011;5010;45.080;7.634;2023-07-31T01:17:45;9.82;;;9.32;;
9942;SDS011;5010;45.080;7.634;2023-07-31T01:20:13;11.82;;;11.23;;
9942;SDS011;5010;45.080;7.634;2023-07-31T01:22:51;11.27;;;10.68;;
9942;SDS011;5010;45.080;7.634;2023-07-31T01:25:26;8.95;;;8.50;;
9942;SDS011;5010;45.080;7.634;2023-07-31T01:28:01;10.60;;;10.02;;
9942;SDS011;5010;45.080;7.634;2023-07-31T01:30:32;11.63;;;11.02;;
9942;SDS011;5010;45.080;7.634;2023-07-31T01:33:01;10.52;;;9.98;;
9942;SDS011;5010;45.080;7.634;2023-07-31T01:35:31;9.95;;;9.45;;
9942;SDS011;5010;45.080;7.634;2023-07-31T01:37:59;11.05;;;10.45;;
9942;SDS011;5010;45.080;7.634;2023-07-31T01:40:26;12.10;;;11.50;;
9942;SDS011;5010;45.080;7.634;2023-07-31T01:42:53;13.07;;;12.38;;
9942;SDS011;5010;45.080;7.634;2023-07-31T01:45:22;11.80;;;11.20;;
9942;SDS011;5010;45.080;7.634;2023-07-31T01:47:49;10.50;;;9.95;;
9942;SDS011;5010;45.080;7.634;2023-07-31T01:50:16;10.43;;;9.90;;
9942;SDS011;5010;45.080;7.634;2023-07-31T01:52:43;10.18;;;9.68;;
9942;SDS011;5010;45.080;7.634;2023-07-31T01:55:10;10.93;;;10.32;;
9942;SDS011;5010;45.080;7.634;2023-07-31T01:57:38;15.60;;;14.80;;
9942;SDS011;5010;45.080;7.634;2023-07-31T02:00:05;12.45;;;11.85;;
9942;SDS011;5010;45.080;7.634;2023-07-31T02:02:34;10.15;;;9.65;;
9942;SDS011;5010;45.080;7.634;2023-07-31T02:05:01;12.70;;;12.02;;
9942;SDS011;5010;45.080;7.634;2023-07-31T02:07:28;11.25;;;10.65;;
9942;SDS011;5010;45.080;7.634;2023-07-31T02:09:56;10.93;;;10.32;;
9942;SDS011;5010;45.080;7.634;2023-07-31T02:12:23;9.90;;;9.40;;
9942;SDS011;5010;45.080;7.634;2023-07-31T02:14:50;8.25;;;7.30;;
9942;SDS011;5010;45.080;7.634;2023-07-31T02:17:17;9.07;;;8.57;;
9942;SDS011;5010;45.080;7.634;2023-07-31T02:19:48;9.57;;;9.07;;
9942;SDS011;5010;45.080;7.634;2023-07-31T02:22:15;11.18;;;10.57;;
9942;SDS011;5010;45.080;7.634;2023-07-31T02:24:43;9.73;;;9.23;;
9942;SDS011;5010;45.080;7.634;2023-07-31T02:27:10;11.13;;;10.52;;
9942;SDS011;5010;45.080;7.634;2023-07-31T02:29:37;11.40;;;10.80;;
9942;SDS011;5010;45.080;7.634;2023-07-31T02:32:05;9.38;;;8.88;;
9942;SDS011;5010;45.080;7.634;2023-07-31T02:34:32;11.02;;;10.43;;
9942;SDS011;5010;45.080;7.634;2023-07-31T02:37:00;10.73;;;10.13;;
9942;SDS011;5010;45.080;7.634;2023-07-31T02:39:28;9.30;;;8.80;;
9942;SDS011;5010;45.080;7.634;2023-07-31T02:41:55;10.35;;;9.82;;
9942;SDS011;5010;45.080;7.634;2023-07-31T02:44:22;9.90;;;9.40;;
9942;SDS011;5010;45.080;7.634;2023-07-31T02:46:49;10.80;;;10.20;;
9942;SDS011;5010;45.080;7.634;2023-07-31T02:49:16;9.80;;;9.30;;
9942;SDS011;5010;45.080;7.634;2023-07-31T02:51:44;8.10;;;7.70;;
9942;SDS011;5010;45.080;7.634;2023-07-31T02:54:12;9.90;;;9.40;;
9942;SDS011;5010;45.080;7.634;2023-07-31T02:56:39;11.52;;;10.35;;
9942;SDS011;5010;45.080;7.634;2023-07-31T02:59:06;9.13;;;8.63;;
9942;SDS011;5010;45.080;7.634;2023-07-31T03:01:34;9.57;;;9.07;;
9942;SDS011;5010;45.080;7.634;2023-07-31T03:04:01;8.65;;;8.15;;
9942;SDS011;5010;45.080;7.634;2023-07-31T03:06:28;8.65;;;8.15;;
9942;SDS011;5010;45.080;7.634;2023-07-31T03:08:55;8.85;;;8.35;;
9942;SDS011;5010;45.080;7.634;2023-07-31T03:11:24;9.57;;;9.07;;
9942;SDS011;5010;45.080;7.634;2023-07-31T03:13:51;8.70;;;8.20;;
9942;SDS011;5010;45.080;7.634;2023-07-31T03:16:19;10.10;;;9.60;;
9942;SDS011;5010;45.080;7.634;2023-07-31T03:18:46;11.65;;;11.05;;
9942;SDS011;5010;45.080;7.634;2023-07-31T03:21:13;8.98;;;8.52;;
9942;SDS011;5010;45.080;7.634;2023-07-31T03:23:41;8.70;;;8.20;;
9942;SDS011;5010;45.080;7.634;2023-07-31T03:26:09;8.77;;;8.27;;
9942;SDS011;5010;45.080;7.634;2023-07-31T03:28:37;8.75;;;8.25;;
9942;SDS011;5010;45.080;7.634;2023-07-31T03:31:05;7.65;;;7.25;;
9942;SDS011;5010;45.080;7.634;2023-07-31T03:33:33;10.95;;;10.35;;
9942;SDS011;5010;45.080;7.634;2023-07-31T03:36:00;8.18;;;7.78;;
9942;SDS011;5010;45.080;7.634;2023-07-31T03:38:28;8.60;;;8.13;;
9942;SDS011;5010;45.080;7.634;2023-07-31T03:40:55;7.82;;;7.45;;
9942;SDS011;5010;45.080;7.634;2023-07-31T03:43:23;8.88;;;8.38;;
9942;SDS011;5010;45.080;7.634;2023-07-31T03:45:52;15.38;;;8.60;;
9942;SDS011;5010;45.080;7.634;2023-07-31T03:48:19;8.02;;;6.53;;
9942;SDS011;5010;45.080;7.634;2023-07-31T03:50:46;9.52;;;9.02;;
9942;SDS011;5010;45.080;7.634;2023-07-31T03:53:14;9.18;;;7.13;;
9942;SDS011;5010;45.080;7.634;2023-07-31T03:55:41;8.07;;;7.07;;
9942;SDS011;5010;45.080;7.634;2023-07-31T03:58:08;9.68;;;9.18;;
9942;SDS011;5010;45.080;7.634;2023-07-31T04:00:35;9.20;;;8.70;;
9942;SDS011;5010;45.080;7.634;2023-07-31T04:03:04;9.15;;;8.65;;
9942;SDS011;5010;45.080;7.634;2023-07-31T04:05:31;7.97;;;6.30;;
9942;SDS011;5010;45.080;7.634;2023-07-31T04:07:59;9.88;;;7.20;;
9942;SDS011;5010;45.080;7.634;2023-07-31T04:10:28;9.57;;;7.82;;
9942;SDS011;5010;45.080;7.634;2023-07-31T04:12:56;10.00;;;9.50;;
9942;SDS011;5010;45.080;7.634;2023-07-31T04:15:23;9.55;;;9.05;;
9942;SDS011;5010;45.080;7.634;2023-07-31T04:17:51;9.15;;;7.10;;
9942;SDS011;5010;45.080;7.634;2023-07-31T04:20:19;12.80;;;10.32;;
9942;SDS011;5010;45.080;7.634;2023-07-31T04:22:46;8.98;;;8.48;;
9942;SDS011;5010;45.080;7.634;2023-07-31T04:25:14;9.35;;;8.85;;
9942;SDS011;5010;45.080;7.634;2023-07-31T04:27:41;9.82;;;8.90;;
9942;SDS011;5010;45.080;7.634;2023-07-31T04:30:08;9.25;;;8.75;;
9942;SDS011;5010;45.080;7.634;2023-07-31T04:32:35;10.55;;;9.98;;
9942;SDS011;5010;45.080;7.634;2023-07-31T04:35:03;9.98;;;9.13;;
9942;SDS011;5010;45.080;7.634;2023-07-31T04:37:32;11.15;;;10.55;;
9942;SDS011;5010;45.080;7.634;2023-07-31T04:39:59;10.40;;;9.90;;
9942;SDS011;5010;45.080;7.634;2023-07-31T04:42:26;9.75;;;9.25;;
9942;SDS011;5010;45.080;7.634;2023-07-31T04:44:53;9.45;;;8.95;;
9942;SDS011;5010;45.080;7.634;2023-07-31T04:47:20;11.32;;;10.73;;
9942;SDS011;5010;45.080;7.634;2023-07-31T04:49:48;9.13;;;8.63;;
9942;SDS011;5010;45.080;7.634;2023-07-31T04:52:15;10.77;;;9.98;;
9942;SDS011;5010;45.080;7.634;2023-07-31T04:54:43;9.13;;;8.63;;
9942;SDS011;5010;45.080;7.634;2023-07-31T04:57:10;12.40;;;11.77;;
9942;SDS011;5010;45.080;7.634;2023-07-31T04:59:38;12.05;;;9.07;;
9942;SDS011;5010;45.080;7.634;2023-07-31T05:02:06;10.32;;;9.82;;
9942;SDS011;5010;45.080;7.634;2023-07-31T05:04:33;11.95;;;8.68;;
9942;SDS011;5010;45.080;7.634;2023-07-31T05:07:01;9.52;;;9.02;;
9942;SDS011;5010;45.080;7.634;2023-07-31T05:09:28;8.98;;;8.45;;
9942;SDS011;5010;45.080;7.634;2023-07-31T05:11:56;8.07;;;7.68;;
9942;SDS011;5010;45.080;7.634;2023-07-31T05:14:25;8.88;;;8.27;;
9942;SDS011;5010;45.080;7.634;2023-07-31T05:16:53;9.90;;;9.40;;
9942;SDS011;5010;45.080;7.634;2023-07-31T05:19:20;9.90;;;9.40;;
9942;SDS011;5010;45.080;7.634;2023-07-31T05:21:47;9.93;;;9.43;;
9942;SDS011;5010;45.080;7.634;2023-07-31T05:24:14;11.63;;;11.02;;
9942;SDS011;5010;45.080;7.634;2023-07-31T05:26:41;10.25;;;9.50;;
9942;SDS011;5010;45.080;7.634;2023-07-31T05:29:10;11.85;;;11.25;;
9942;SDS011;5010;45.080;7.634;2023-07-31T05:31:37;10.13;;;9.63;;
9942;SDS011;5010;45.080;7.634;2023-07-31T05:34:05;11.65;;;11.05;;
9942;SDS011;5010;45.080;7.634;2023-07-31T05:36:32;9.73;;;9.23;;
9942;SDS011;5010;45.080;7.634;2023-07-31T05:39:00;8.50;;;8.00;;
9942;SDS011;5010;45.080;7.634;2023-07-31T05:41:31;7.45;;;6.90;;
9942;SDS011;5010;45.080;7.634;2023-07-31T05:43:58;7.68;;;7.28;;
9942;SDS011;5010;45.080;7.634;2023-07-31T05:46:27;7.93;;;7.53;;
9942;SDS011;5010;45.080;7.634;2023-07-31T05:48:54;8.60;;;8.10;;
9942;SDS011;5010;45.080;7.634;2023-07-31T05:51:21;8.15;;;7.75;;
9942;SDS011;5010;45.080;7.634;2023-07-31T05:53:48;11.55;;;7.43;;
9942;SDS011;5010;45.080;7.634;2023-07-31T05:56:16;9.00;;;7.95;;
9942;SDS011;5010;45.080;7.634;2023-07-31T05:58:44;10.15;;;7.88;;
9942;SDS011;5010;45.080;7.634;2023-07-31T06:01:11;7.82;;;7.25;;
9942;SDS011;5010;45.080;7.634;2023-07-31T06:03:39;8.43;;;7.97;;
9942;SDS011;5010;45.080;7.634;2023-07-31T06:06:07;8.00;;;6.70;;
9942;SDS011;5010;45.080;7.634;2023-07-31T06:08:34;7.80;;;7.40;;
9942;SDS011;5010;45.080;7.634;2023-07-31T06:11:02;8.25;;;7.80;;
9942;SDS011;5010;45.080;7.634;2023-07-31T06:13:29;8.10;;;7.70;;
9942;SDS011;5010;45.080;7.634;2023-07-31T06:15:56;7.20;;;6.80;;
9942;SDS011;5010;45.080;7.634;2023-07-31T06:18:24;10.95;;;10.35;;
9942;SDS011;5010;45.080;7.634;2023-07-31T06:20:53;13.85;;;7.97;;
9942;SDS011;5010;45.080;7.634;2023-07-31T06:23:20;9.05;;;8.55;;
9942;SDS011;5010;45.080;7.634;2023-07-31T06:25:48;8.68;;;8.18;;
9942;SDS011;5010;45.080;7.634;2023-07-31T06:28:15;9.43;;;8.93;;
9942;SDS011;5010;45.080;7.634;2023-07-31T06:30:42;8.13;;;7.72;;
9942;SDS011;5010;45.080;7.634;2023-07-31T06:33:09;11.15;;;8.98;;
9942;SDS011;5010;45.080;7.634;2023-07-31T06:35:36;9.80;;;9.30;;
9942;SDS011;5010;45.080;7.634;2023-07-31T06:38:05;7.88;;;7.47;;
9942;SDS011;5010;45.080;7.634;2023-07-31T06:40:32;10.73;;;8.10;;
9942;SDS011;5010;45.080;7.634;2023-07-31T06:42:59;9.68;;;9.18;;
9942;SDS011;5010;45.080;7.634;2023-07-31T06:45:32;8.98;;;8.48;;
9942;SDS011;5010;45.080;7.634;2023-07-31T06:48:00;8.70;;;8.20;;
9942;SDS011;5010;45.080;7.634;2023-07-31T06:50:27;10.07;;;9.40;;
9942;SDS011;5010;45.080;7.634;2023-07-31T06:52:54;8.00;;;7.60;;
9942;SDS011;5010;45.080;7.634;2023-07-31T06:55:23;12.52;;;8.43;;
9942;SDS011;5010;45.080;7.634;2023-07-31T06:57:51;9.05;;;8.55;;
9942;SDS011;5010;45.080;7.634;2023-07-31T07:00:19;8.15;;;7.70;;
9942;SDS011;5010;45.080;7.634;2023-07-31T07:02:47;7.85;;;7.18;;
9942;SDS011;5010;45.080;7.634;2023-07-31T07:05:15;8.93;;;8.43;;
9942;SDS011;5010;45.080;7.634;2023-07-31T07:07:42;9.13;;;8.63;;
9942;SDS011;5010;45.080;7.634;2023-07-31T07:10:10;8.82;;;7.93;;
9942;SDS011;5010;45.080;7.634;2023-07-31T07:12:38;7.35;;;6.95;;
9942;SDS011;5010;45.080;7.634;2023-07-31T07:15:06;7.90;;;7.50;;
9942;SDS011;5010;45.080;7.634;2023-07-31T07:17:33;8.40;;;7.82;;
9942;SDS011;5010;45.080;7.634;2023-07-31T07:20:00;6.88;;;6.35;;
9942;SDS011;5010;45.080;7.634;2023-07-31T07:22:28;8.50;;;7.93;;
9942;SDS011;5010;45.080;7.634;2023-07-31T07:24:55;8.23;;;7.68;;
9942;SDS011;5010;45.080;7.634;2023-07-31T07:27:23;7.43;;;7.03;;
9942;SDS011;5010;45.080;7.634;2023-07-31T07:29:51;8.52;;;8.05;;
9942;SDS011;5010;45.080;7.634;2023-07-31T07:32:18;8.85;;;8.35;;
9942;SDS011;5010;45.080;7.634;2023-07-31T07:34:46;7.97;;;7.57;;
9942;SDS011;5010;45.080;7.634;2023-07-31T07:37:14;7.20;;;6.00;;
9942;SDS011;5010;45.080;7.634;2023-07-31T07:39:41;7.90;;;7.50;;
9942;SDS011;5010;45.080;7.634;2023-07-31T07:42:08;8.90;;;8.40;;
9942;SDS011;5010;45.080;7.634;2023-07-31T07:44:36;9.35;;;8.25;;
9942;SDS011;5010;45.080;7.634;2023-07-31T07:47:04;8.23;;;7.82;;
9942;SDS011;5010;45.080;7.634;2023-07-31T07:49:32;8.30;;;7.90;;
9942;SDS011;5010;45.080;7.634;2023-07-31T07:51:59;9.30;;;8.80;;
9942;SDS011;5010;45.080;7.634;2023-07-31T07:54:27;7.18;;;6.80;;
9942;SDS011;5010;45.080;7.634;2023-07-31T07:56:54;9.02;;;8.52;;
9942;SDS011;5010;45.080;7.634;2023-07-31T07:59:21;8.15;;;7.75;;
9942;SDS011;5010;45.080;7.634;2023-07-31T08:01:48;9.00;;;7.75;;
9942;SDS011;5010;45.080;7.634;2023-07-31T08:04:17;8.30;;;7.68;;
9942;SDS011;5010;45.080;7.634;2023-07-31T08:06:44;9.85;;;8.15;;
9942;SDS011;5010;45.080;7.634;2023-07-31T08:09:11;8.90;;;8.40;;
9942;SDS011;5010;45.080;7.634;2023-07-31T08:11:38;7.35;;;6.95;;
9942;SDS011;5010;45.080;7.634;2023-07-31T08:14:06;8.60;;;8.10;;
9942;SDS011;5010;45.080;7.634;2023-07-31T08:16:33;8.68;;;8.18;;
9942;SDS011;5010;45.080;7.634;2023-07-31T08:19:00;8.20;;;7.80;;
9942;SDS011;5010;45.080;7.634;2023-07-31T08:21:29;7.68;;;6.95;;
9942;SDS011;5010;45.080;7.634;2023-07-31T08:23:56;9.98;;;9.48;;
9942;SDS011;5010;45.080;7.634;2023-07-31T08:26:23;8.15;;;7.75;;
9942;SDS011;5010;45.080;7.634;2023-07-31T08:28:50;9.45;;;8.95;;
9942;SDS011;5010;45.080;7.634;2023-07-31T08:31:18;11.05;;;10.45;;
9942;SDS011;5010;45.080;7.634;2023-07-31T08:33:45;8.10;;;7.70;;
9942;SDS011;5010;45.080;7.634;2023-07-31T08:36:14;10.82;;;10.23;;
9942;SDS011;5010;45.080;7.634;2023-07-31T08:38:42;9.93;;;9.43;;
9942;SDS011;5010;45.080;7.634;2023-07-31T08:41:10;11.43;;;10.82;;
9942;SDS011;5010;45.080;7.634;2023-07-31T08:43:38;9.00;;;8.50;;
9942;SDS011;5010;45.080;7.634;2023-07-31T08:46:05;8.20;;;7.75;;
9942;SDS011;5010;45.080;7.634;2023-07-31T08:48:33;10.05;;;9.55;;
9942;SDS011;5010;45.080;7.634;2023-07-31T08:51:02;10.02;;;9.52;;
9942;SDS011;5010;45.080;7.634;2023-07-31T08:53:29;8.40;;;7.95;;
9942;SDS011;5010;45.080;7.634;2023-07-31T08:55:58;10.40;;;7.85;;
9942;SDS011;5010;45.080;7.634;2023-07-31T08:58:26;9.13;;;8.63;;
9942;SDS011;5010;45.080;7.634;2023-07-31T09:00:54;15.18;;;11.32;;
9942;SDS011;5010;45.080;7.634;2023-07-31T09:03:23;13.93;;;9.50;;
9942;SDS011;5010;45.080;7.634;2023-07-31T09:05:51;9.48;;;8.98;;
9942;SDS011;5010;45.080;7.634;2023-07-31T09:08:19;9.63;;;9.13;;
9942;SDS011;5010;45.080;7.634;2023-07-31T09:10:47;9.75;;;9.25;;
9942;SDS011;5010;45.080;7.634;2023-07-31T09:13:17;9.50;;;9.00;;
9942;SDS011;5010;45.080;7.634;2023-07-31T09:15:45;10.50;;;9.95;;
9942;SDS011;5010;45.080;7.634;2023-07-31T09:18:12;15.15;;;14.35;;
9942;SDS011;5010;45.080;7.634;2023-07-31T09:20:43;10.75;;;10.15;;
9942;SDS011;5010;45.080;7.634;2023-07-31T09:23:11;10.73;;;10.15;;
9942;SDS011;5010;45.080;7.634;2023-07-31T09:25:39;12.60;;;11.95;;
9942;SDS011;5010;45.080;7.634;2023-07-31T09:28:07;9.45;;;8.95;;
9942;SDS011;5010;45.080;7.634;2023-07-31T09:30:46;11.35;;;10.73;;
9942;SDS011;5010;45.080;7.634;2023-07-31T09:33:14;10.35;;;9.82;;
9942;SDS011;5010;45.080;7.634;2023-07-31T09:35:41;9.07;;;8.57;;
9942;SDS011;5010;45.080;7.634;2023-07-31T09:38:09;9.95;;;9.45;;
9942;SDS011;5010;45.080;7.634;2023-07-31T09:40:37;10.00;;;8.80;;
9942;SDS011;5010;45.080;7.634;2023-07-31T09:43:05;9.60;;;8.65;;
9942;SDS011;5010;45.080;7.634;2023-07-31T09:45:33;9.07;;;8.57;;
9942;SDS011;5010;45.080;7.634;2023-07-31T09:48:02;10.50;;;9.60;;
9942;SDS011;5010;45.080;7.634;2023-07-31T09:50:29;10.18;;;9.68;;
9942;SDS011;5010;45.080;7.634;2023-07-31T09:52:57;8.57;;;8.10;;
9942;SDS011;5010;45.080;7.634;2023-07-31T09:55:24;11.98;;;10.52;;
9942;SDS011;5010;45.080;7.634;2023-07-31T09:57:51;12.55;;;9.60;;
9942;SDS011;5010;45.080;7.634;2023-07-31T10:00:19;11.13;;;10.52;;
9942;SDS011;5010;45.080;7.634;2023-07-31T10:02:47;10.90;;;10.30;;
9942;SDS011;5010;45.080;7.634;2023-07-31T10:05:16;11.05;;;10.45;;
9942;SDS011;5010;45.080;7.634;2023-07-31T10:07:46;10.65;;;10.05;;
9942;SDS011;5010;45.080;7.634;2023-07-31T10:10:17;17.58;;;10.65;;
9942;SDS011;5010;45.080;7.634;2023-07-31T10:12:44;12.85;;;9.65;;
9942;SDS011;5010;45.080;7.634;2023-07-31T10:15:12;12.73;;;12.05;;
9942;SDS011;5010;45.080;7.634;2023-07-31T10:17:40;12.73;;;12.02;;
9942;SDS011;5010;45.080;7.634;2023-07-31T10:20:09;12.40;;;11.77;;
9942;SDS011;5010;45.080;7.634;2023-07-31T10:22:39;9.80;;;9.30;;
9942;SDS011;5010;45.080;7.634;2023-07-31T10:25:06;13.00;;;12.30;;
9942;SDS011;5010;45.080;7.634;2023-07-31T10:27:34;10.60;;;9.93;;
9942;SDS011;5010;45.080;7.634;2023-07-31T10:30:02;11.77;;;11.18;;
9942;SDS011;5010;45.080;7.634;2023-07-31T10:32:30;10.55;;;10.00;;
9942;SDS011;5010;45.080;7.634;2023-07-31T10:34:58;10.25;;;8.35;;
9942;SDS011;5010;45.080;7.634;2023-07-31T10:37:26;11.60;;;11.00;;
9942;SDS011;5010;45.080;7.634;2023-07-31T10:39:59;10.65;;;10.05;;
9942;SDS011;5010;45.080;7.634;2023-07-31T10:42:27;11.13;;;10.52;;
9942;SDS011;5010;45.080;7.634;2023-07-31T10:44:56;12.02;;;11.43;;
9942;SDS011;5010;45.080;7.634;2023-07-31T10:47:24;12.30;;;11.50;;
9942;SDS011;5010;45.080;7.634;2023-07-31T10:49:51;11.27;;;10.02;;
9942;SDS011;5010;45.080;7.634;2023-07-31T10:52:19;12.68;;;10.77;;
9942;SDS011;5010;45.080;7.634;2023-07-31T10:54:48;9.05;;;8.55;;
9942;SDS011;5010;45.080;7.634;2023-07-31T10:57:21;14.95;;;14.15;;
9942;SDS011;5010;45.080;7.634;2023-07-31T10:59:49;11.65;;;11.05;;
9942;SDS011;5010;45.080;7.634;2023-07-31T11:02:23;11.18;;;10.57;;
9942;SDS011;5010;45.080;7.634;2023-07-31T11:05:05;11.80;;;11.20;;
9942;SDS011;5010;45.080;7.634;2023-07-31T11:07:46;11.43;;;10.85;;
9942;SDS011;5010;45.080;7.634;2023-07-31T11:10:15;12.73;;;12.05;;
9942;SDS011;5010;45.080;7.634;2023-07-31T11:12:44;12.20;;;11.60;;
9942;SDS011;5010;45.080;7.634;2023-07-31T11:15:12;14.85;;;14.05;;
9942;SDS011;5010;45.080;7.634;2023-07-31T11:17:39;10.07;;;9.57;;
9942;SDS011;5010;45.080;7.634;2023-07-31T11:20:08;13.25;;;12.55;;
9942;SDS011;5010;45.080;7.634;2023-07-31T11:22:35;12.00;;;11.40;;
9942;SDS011;5010;45.080;7.634;2023-07-31T11:25:02;12.13;;;11.52;;
9942;SDS011;5010;45.080;7.634;2023-07-31T11:27:30;15.98;;;15.18;;
9942;SDS011;5010;45.080;7.634;2023-07-31T11:30:02;12.60;;;11.95;;
9942;SDS011;5010;45.080;7.634;2023-07-31T11:32:32;10.90;;;10.30;;
9942;SDS011;5010;45.080;7.634;2023-07-31T11:35:02;11.50;;;10.90;;
9942;SDS011;5010;45.080;7.634;2023-07-31T11:37:42;13.27;;;12.57;;
9942;SDS011;5010;45.080;7.634;2023-07-31T11:40:10;8.93;;;8.43;;
9942;SDS011;5010;45.080;7.634;2023-07-31T11:42:38;13.48;;;12.77;;
9942;SDS011;5010;45.080;7.634;2023-07-31T11:45:07;13.73;;;13.02;;
9942;SDS011;5010;45.080;7.634;2023-07-31T11:47:35;9.90;;;9.40;;
9942;SDS011;5010;45.080;7.634;2023-07-31T11:50:03;11.93;;;11.32;;
9942;SDS011;5010;45.080;7.634;2023-07-31T11:52:32;10.65;;;10.05;;
9942;SDS011;5010;45.080;7.634;2023-07-31T11:55:01;11.95;;;11.35;;
9942;SDS011;5010;45.080;7.634;2023-07-31T11:57:28;10.77;;;10.18;;
9942;SDS011;5010;45.080;7.634;2023-07-31T12:00:04;10.70;;;10.10;;
9942;SDS011;5010;45.080;7.634;2023-07-31T12:02:33;11.07;;;10.48;;
9942;SDS011;5010;45.080;7.634;2023-07-31T12:05:01;10.05;;;9.55;;
9942;SDS011;5010;45.080;7.634;2023-07-31T12:07:27;11.68;;;11.00;;
9942;SDS011;5010;45.080;7.634;2023-07-31T12:09:55;11.70;;;11.10;;
9942;SDS011;5010;45.080;7.634;2023-07-31T12:12:23;9.95;;;9.45;;
9942;SDS011;5010;45.080;7.634;2023-07-31T12:14:50;11.90;;;11.30;;
9942;SDS011;5010;45.080;7.634;2023-07-31T12:17:19;13.00;;;12.30;;
9942;SDS011;5010;45.080;7.634;2023-07-31T12:19:49;11.50;;;10.90;;
9942;SDS011;5010;45.080;7.634;2023-07-31T12:22:16;12.70;;;9.25;;
9942;SDS011;5010;45.080;7.634;2023-07-31T12:24:44;10.80;;;10.20;;
9942;SDS011;5010;45.080;7.634;2023-07-31T12:27:11;10.20;;;9.70;;
9942;SDS011;5010;45.080;7.634;2023-07-31T12:29:39;10.63;;;10.05;;
9942;SDS011;5010;45.080;7.634;2023-07-31T12:32:18;11.30;;;10.70;;
9942;SDS011;5010;45.080;7.634;2023-07-31T12:34:45;11.02;;;10.40;;
9942;SDS011;5010;45.080;7.634;2023-07-31T12:37:14;9.35;;;8.80;;
9942;SDS011;5010;45.080;7.634;2023-07-31T12:39:41;10.45;;;9.90;;
9942;SDS011;5010;45.080;7.634;2023-07-31T12:42:09;11.70;;;11.10;;
9942;SDS011;5010;45.080;7.634;2023-07-31T12:44:36;9.43;;;8.93;;
9942;SDS011;5010;45.080;7.634;2023-07-31T12:47:03;10.95;;;10.35;;
9942;SDS011;5010;45.080;7.634;2023-07-31T12:49:31;10.02;;;9.52;;
9942;SDS011;5010;45.080;7.634;2023-07-31T12:51:58;9.18;;;8.68;;
9942;SDS011;5010;45.080;7.634;2023-07-31T12:54:27;10.30;;;9.80;;
9942;SDS011;5010;45.080;7.634;2023-07-31T12:56:54;8.57;;;8.10;;
9942;SDS011;5010;45.080;7.634;2023-07-31T12:59:21;9.80;;;9.30;;
9942;SDS011;5010;45.080;7.634;2023-07-31T13:01:48;9.70;;;9.20;;
9942;SDS011;5010;45.080;7.634;2023-07-31T13:04:16;9.30;;;8.80;;
9942;SDS011;5010;45.080;7.634;2023-07-31T13:06:43;10.40;;;9.90;;
9942;SDS011;5010;45.080;7.634;2023-07-31T13:09:10;9.05;;;8.55;;
9942;SDS011;5010;45.080;7.634;2023-07-31T13:11:39;11.13;;;10.52;;
9942;SDS011;5010;45.080;7.634;2023-07-31T13:14:06;11.07;;;10.48;;
9942;SDS011;5010;45.080;7.634;2023-07-31T13:16:33;11.23;;;10.63;;
9942;SDS011;5010;45.080;7.634;2023-07-31T13:19:01;11.38;;;10.77;;
9942;SDS011;5010;45.080;7.634;2023-07-31T13:21:28;10.48;;;9.63;;
9942;SDS011;5010;45.080;7.634;2023-07-31T13:23:56;10.90;;;10.30;;
9942;SDS011;5010;45.080;7.634;2023-07-31T13:26:25;10.23;;;9.73;;
9942;SDS011;5010;45.080;7.634;2023-07-31T13:28:54;9.73;;;9.23;;
9942;SDS011;5010;45.080;7.634;2023-07-31T13:31:21;11.48;;;10.70;;
9942;SDS011;5010;45.080;7.634;2023-07-31T13:33:48;10.60;;;10.00;;
9942;SDS011;5010;45.080;7.634;2023-07-31T13:36:16;10.88;;;10.27;;
9942;SDS011;5010;45.080;7.634;2023-07-31T13:38:43;11.55;;;10.95;;
9942;SDS011;5010;45.080;7.634;2023-07-31T13:41:10;12.35;;;11.75;;
9942;SDS011;5010;45.080;7.634;2023-07-31T13:43:37;12.80;;;12.13;;
9942;SDS011;5010;45.080;7.634;2023-07-31T13:46:07;11.55;;;10.95;;
9942;SDS011;5010;45.080;7.634;2023-07-31T13:48:36;11.70;;;11.10;;
9942;SDS011;5010;45.080;7.634;2023-07-31T13:51:03;12.45;;;11.20;;
9942;SDS011;5010;45.080;7.634;2023-07-31T13:53:30;12.27;;;11.68;;
9942;SDS011;5010;45.080;7.634;2023-07-31T13:55:58;11.13;;;10.52;;
9942;SDS011;5010;45.080;7.634;2023-07-31T13:58:25;12.60;;;11.95;;
9942;SDS011;5010;45.080;7.634;2023-07-31T14:00:52;12.80;;;12.13;;
9942;SDS011;5010;45.080;7.634;2023-07-31T14:03:21;12.15;;;11.55;;
9942;SDS011;5010;45.080;7.634;2023-07-31T14:05:48;12.02;;;11.43;;
9942;SDS011;5010;45.080;7.634;2023-07-31T14:08:15;11.73;;;11.13;;
9942;SDS011;5010;45.080;7.634;2023-07-31T14:10:43;13.25;;;12.55;;
9942;SDS011;5010;45.080;7.634;2023-07-31T14:13:10;12.02;;;11.43;;
9942;SDS011;5010;45.080;7.634;2023-07-31T14:15:37;12.93;;;12.23;;
9942;SDS011;5010;45.080;7.634;2023-07-31T14:18:04;13.25;;;12.55;;
9942;SDS011;5010;45.080;7.634;2023-07-31T14:20:33;14.02;;;13.20;;
9942;SDS011;5010;45.080;7.634;2023-07-31T14:23:01;12.32;;;11.73;;
9942;SDS011;5010;45.080;7.634;2023-07-31T14:25:29;12.00;;;11.40;;
9942;SDS011;5010;45.080;7.634;2023-07-31T14:27:56;13.68;;;12.98;;
9942;SDS011;5010;45.080;7.634;2023-07-31T14:30:23;12.60;;;11.95;;
9942;SDS011;5010;45.080;7.634;2023-07-31T14:32:51;12.40;;;11.80;;
9942;SDS011;5010;45.080;7.634;2023-07-31T14:35:18;13.35;;;12.65;;
9942;SDS011;5010;45.080;7.634;2023-07-31T14:37:47;14.32;;;13.63;;
9942;SDS011;5010;45.080;7.634;2023-07-31T14:40:14;13.35;;;12.65;;
9942;SDS011;5010;45.080;7.634;2023-07-31T14:42:41;15.40;;;14.60;;
9942;SDS011;5010;45.080;7.634;2023-07-31T14:45:09;12.15;;;11.55;;
9942;SDS011;5010;45.080;7.634;2023-07-31T14:47:36;12.27;;;11.68;;
9942;SDS011;5010;45.080;7.634;2023-07-31T14:50:04;12.60;;;11.95;;
9942;SDS011;5010;45.080;7.634;2023-07-31T14:52:31;13.27;;;12.57;;
9942;SDS011;5010;45.080;7.634;2023-07-31T14:55:04;12.55;;;11.90;;
9942;SDS011;5010;45.080;7.634;2023-07-31T14:57:34;11.90;;;11.30;;
9942;SDS011;5010;45.080;7.634;2023-07-31T15:00:05;11.00;;;10.40;;
9942;SDS011;5010;45.080;7.634;2023-07-31T15:02:38;12.75;;;12.05;;
9942;SDS011;5010;45.080;7.634;2023-07-31T15:05:05;13.52;;;12.82;;
9942;SDS011;5010;45.080;7.634;2023-07-31T15:07:33;13.23;;;12.52;;